createdAt,value
2019-02-09T00:01:46.332Z,14.33
2019-02-09T00:04:15.959Z,13.60
2019-02-09T00:06:46.897Z,13.43
2019-02-09T00:09:17.762Z,13.87
2019-02-09T00:11:47.446Z,14.10
2019-02-09T00:14:17.057Z,13.07
2019-02-09T00:16:46.669Z,13.80
2019-02-09T00:19:17.594Z,13.63
2019-02-09T00:21:47.214Z,13.53
2019-02-09T00:24:18.068Z,12.07
2019-02-09T00:26:47.694Z,13.20
2019-02-09T00:29:17.359Z,13.50
2019-02-09T00:31:46.982Z,12.90
2019-02-09T00:34:16.642Z,12.37
2019-02-09T00:36:46.258Z,13.03
2019-02-09T00:39:15.864Z,12.73
2019-02-09T00:41:45.542Z,13.70
2019-02-09T00:44:15.183Z,12.10
2019-02-09T00:46:44.829Z,13.23
2019-02-09T00:49:14.471Z,11.03
2019-02-09T00:51:44.094Z,11.77
2019-02-09T00:54:13.762Z,12.23
2019-02-09T00:56:43.418Z,11.83
2019-02-09T00:59:13.040Z,12.10
2019-02-09T01:01:42.719Z,11.80
2019-02-09T01:04:12.346Z,11.63
2019-02-09T01:06:41.952Z,11.33
2019-02-09T01:09:12.067Z,12.00
2019-02-09T01:11:41.689Z,11.10
2019-02-09T01:14:11.320Z,11.40
2019-02-09T01:16:40.929Z,10.63
2019-02-09T01:19:10.593Z,10.43
2019-02-09T01:21:40.315Z,10.00
2019-02-09T01:24:12.412Z,11.03
2019-02-09T01:26:42.053Z,10.33
2019-02-09T01:29:12.823Z,10.27
2019-02-09T01:31:42.469Z,10.27
2019-02-09T01:34:12.135Z,10.40
2019-02-09T01:36:41.765Z,9.10
2019-02-09T01:39:11.370Z,8.60
2019-02-09T01:41:41.040Z,8.97
2019-02-09T01:44:10.662Z,9.47
2019-02-09T01:46:40.291Z,9.93
2019-02-09T01:49:09.975Z,9.80
2019-02-09T01:51:39.589Z,10.10
2019-02-09T01:54:09.205Z,9.73
2019-02-09T01:56:38.869Z,10.17
2019-02-09T01:59:08.497Z,10.87
2019-02-09T02:01:38.153Z,9.10
2019-02-09T02:04:07.754Z,9.83
2019-02-09T02:06:37.389Z,9.53
2019-02-09T02:09:08.277Z,9.93
2019-02-09T02:11:37.930Z,9.27
2019-02-09T02:14:07.597Z,9.30
2019-02-09T02:16:37.247Z,8.97
2019-02-09T02:19:06.881Z,10.33
2019-02-09T02:21:36.535Z,9.13
2019-02-09T02:24:06.198Z,10.33
2019-02-09T02:26:35.849Z,10.30
2019-02-09T02:29:05.482Z,9.00
2019-02-09T02:31:35.099Z,9.67
2019-02-09T02:34:04.864Z,9.70
2019-02-09T02:36:34.528Z,9.47
2019-02-09T02:39:05.648Z,10.13
2019-02-09T02:41:35.272Z,9.57
2019-02-09T02:44:05.045Z,10.13
2019-02-09T02:46:34.708Z,9.90
2019-02-09T02:49:04.314Z,9.70
2019-02-09T02:51:33.963Z,8.87
2019-02-09T02:54:03.589Z,9.93
2019-02-09T02:56:33.275Z,9.00
2019-02-09T02:59:02.876Z,9.27
2019-02-09T03:01:32.497Z,9.00
2019-02-09T03:04:02.137Z,9.50
2019-02-09T03:06:31.741Z,9.73
2019-02-09T03:09:01.389Z,9.50
2019-02-09T03:11:31.007Z,9.43
2019-02-09T03:14:00.665Z,9.70
2019-02-09T03:16:30.283Z,9.93
2019-02-09T03:18:59.927Z,9.17
2019-02-09T03:21:29.690Z,9.30
2019-02-09T03:23:59.305Z,10.27
2019-02-09T03:26:28.997Z,8.93
2019-02-09T03:29:01.145Z,9.67
2019-02-09T03:31:30.820Z,10.63
2019-02-09T03:34:00.435Z,10.50
2019-02-09T03:36:30.073Z,10.23
2019-02-09T03:38:59.762Z,10.67
2019-02-09T03:41:30.723Z,10.50
2019-02-09T03:44:00.347Z,9.73
2019-02-09T03:46:29.982Z,10.70
2019-02-09T03:48:59.629Z,9.87
2019-02-09T03:51:29.309Z,10.10
2019-02-09T03:53:59.159Z,10.80
2019-02-09T03:56:29.602Z,9.97
2019-02-09T03:58:58.413Z,10.90
2019-02-09T04:01:28.035Z,10.87
2019-02-09T04:03:57.717Z,10.90
2019-02-09T04:06:27.348Z,11.30
2019-02-09T04:08:57.603Z,11.30
2019-02-09T04:11:27.279Z,10.63
2019-02-09T04:13:58.245Z,10.10
2019-02-09T04:16:27.869Z,11.07
2019-02-09T04:18:57.486Z,11.33
2019-02-09T04:21:27.133Z,11.00
2019-02-09T04:23:56.751Z,11.30
2019-02-09T04:26:26.385Z,9.97
2019-02-09T04:28:56.070Z,11.73
2019-02-09T04:31:25.706Z,10.23
2019-02-09T04:33:55.358Z,10.63
2019-02-09T04:36:24.982Z,11.73
2019-02-09T04:38:55.890Z,12.13
2019-02-09T04:41:25.497Z,12.53
2019-02-09T04:43:55.125Z,11.93
2019-02-09T04:46:24.765Z,11.20
2019-02-09T04:48:54.385Z,10.63
2019-02-09T04:51:24.056Z,10.60
2019-02-09T04:53:53.715Z,10.87
2019-02-09T04:56:23.370Z,11.00
2019-02-09T04:58:53.012Z,10.93
2019-02-09T05:01:22.641Z,10.23
2019-02-09T05:03:52.343Z,9.03
2019-02-09T05:06:21.963Z,10.73
2019-02-09T05:08:51.582Z,10.73
2019-02-09T05:11:27.143Z,10.37
2019-02-09T05:13:56.792Z,10.23
2019-02-09T05:16:26.416Z,9.17
2019-02-09T05:18:56.139Z,9.43
2019-02-09T05:21:25.749Z,9.13
2019-02-09T05:23:55.394Z,9.37
2019-02-09T05:26:25.020Z,9.50
2019-02-09T05:28:54.670Z,8.63
2019-02-09T05:31:24.305Z,9.48
2019-02-09T05:33:56.483Z,8.07
2019-02-09T05:36:26.102Z,8.37
2019-02-09T05:38:55.735Z,7.50
2019-02-09T05:41:25.426Z,6.57
2019-02-09T05:43:55.044Z,7.60
2019-02-09T05:46:25.938Z,7.33
2019-02-09T05:48:55.542Z,7.17
2019-02-09T05:51:25.221Z,7.53
2019-02-09T05:53:54.853Z,6.93
2019-02-09T05:56:24.469Z,7.67
2019-02-09T05:58:54.161Z,6.47
2019-02-09T06:01:31.583Z,5.83
2019-02-09T06:03:53.438Z,6.10
2019-02-09T06:06:23.111Z,5.67
2019-02-09T06:08:52.737Z,6.53
2019-02-09T06:11:23.651Z,5.63
2019-02-09T06:13:53.268Z,5.63
2019-02-09T06:16:24.289Z,5.97
2019-02-09T06:18:53.942Z,6.63
2019-02-09T06:21:23.617Z,5.90
2019-02-09T06:23:53.230Z,6.27
2019-02-09T06:26:22.831Z,6.77
2019-02-09T06:28:52.495Z,6.20
2019-02-09T06:31:22.120Z,5.80
2019-02-09T06:33:51.768Z,6.27
2019-02-09T06:36:21.429Z,6.17
2019-02-09T06:38:51.078Z,6.47
2019-02-09T06:41:21.999Z,6.60
2019-02-09T06:43:51.622Z,6.50
2019-02-09T06:46:21.391Z,7.10
2019-02-09T06:48:51.068Z,7.80
2019-02-09T06:51:20.686Z,7.13
2019-02-09T06:53:50.323Z,7.13
2019-02-09T06:56:19.940Z,6.90
2019-02-09T06:58:49.652Z,7.20
2019-02-09T07:01:19.278Z,7.93
2019-02-09T07:03:48.891Z,7.93
2019-02-09T07:06:18.503Z,7.60
2019-02-09T07:08:49.417Z,7.80
2019-02-09T07:11:19.057Z,7.77
2019-02-09T07:13:48.719Z,8.30
2019-02-09T07:16:19.617Z,8.00
2019-02-09T07:18:49.324Z,8.50
2019-02-09T07:21:18.949Z,7.60
2019-02-09T07:23:48.561Z,8.83
2019-02-09T07:26:18.257Z,8.23
2019-02-09T07:28:47.885Z,8.43
2019-02-09T07:31:17.532Z,9.30
2019-02-09T07:33:48.442Z,9.13
2019-02-09T07:36:18.093Z,8.30
2019-02-09T07:38:47.732Z,8.67
2019-02-09T07:41:17.397Z,9.03
2019-02-09T07:43:47.003Z,9.63
2019-02-09T07:46:16.629Z,9.67
2019-02-09T07:48:46.291Z,9.50
2019-02-09T07:51:15.905Z,9.63
2019-02-09T07:53:45.505Z,10.30
2019-02-09T07:56:15.150Z,9.13
2019-02-09T07:58:44.761Z,9.00
2019-02-09T08:01:15.622Z,8.67
2019-02-09T08:03:45.264Z,9.63
2019-02-09T08:06:14.916Z,8.87
2019-02-09T08:08:44.563Z,9.87
2019-02-09T08:11:14.233Z,10.20
2019-02-09T08:13:46.374Z,9.87
2019-02-09T08:16:16.014Z,9.80
2019-02-09T08:18:48.141Z,10.40
2019-02-09T08:21:17.769Z,10.83
2019-02-09T08:23:47.456Z,8.83
2019-02-09T08:26:17.133Z,10.37
2019-02-09T08:28:46.765Z,10.87
2019-02-09T08:31:17.554Z,10.00
2019-02-09T08:33:47.197Z,9.23
2019-02-09T08:36:16.834Z,9.90
2019-02-09T08:38:46.453Z,11.63
2019-02-09T08:41:16.101Z,9.70
2019-02-09T08:43:45.839Z,10.53
2019-02-09T08:46:16.572Z,9.80
2019-02-09T08:48:46.321Z,10.80
2019-02-09T08:51:15.921Z,10.20
2019-02-09T08:53:47.141Z,10.77
2019-02-09T08:56:16.481Z,11.27
2019-02-09T08:58:46.289Z,11.23
2019-02-09T09:01:17.151Z,9.63
2019-02-09T09:03:46.769Z,10.87
2019-02-09T09:06:16.404Z,11.73
2019-02-09T09:08:46.240Z,11.57
2019-02-09T09:11:15.982Z,11.30
2019-02-09T09:13:47.327Z,10.77
2019-02-09T09:16:16.945Z,11.93
2019-02-09T09:18:48.578Z,12.33
2019-02-09T09:21:19.508Z,11.27
2019-02-09T09:23:51.683Z,10.87
2019-02-09T09:26:21.298Z,11.93
2019-02-09T09:28:50.918Z,13.17
2019-02-09T09:31:23.029Z,13.23
2019-02-09T09:33:55.220Z,12.43
2019-02-09T09:36:25.046Z,11.83
2019-02-09T09:38:54.756Z,11.43
2019-02-09T09:41:24.411Z,14.57
2019-02-09T09:43:55.218Z,13.37
2019-02-09T09:46:24.866Z,12.80
2019-02-09T09:48:54.488Z,12.97
2019-02-09T09:51:24.154Z,13.37
2019-02-09T09:53:53.791Z,12.80
2019-02-09T09:56:24.629Z,14.50
2019-02-09T09:58:54.353Z,13.50
2019-02-09T10:01:25.702Z,12.47
2019-02-09T10:03:55.335Z,12.60
2019-02-09T10:06:24.942Z,12.67
2019-02-09T10:08:54.582Z,13.10
2019-02-09T10:11:24.337Z,13.70
2019-02-09T10:13:53.973Z,12.77
2019-02-09T10:16:23.645Z,11.97
2019-02-09T10:18:53.330Z,13.87
2019-02-09T10:21:24.189Z,12.43
2019-02-09T10:23:53.857Z,12.20
2019-02-09T10:26:24.733Z,13.17
2019-02-09T10:28:54.378Z,13.33
2019-02-09T10:31:26.001Z,11.80
2019-02-09T10:33:55.657Z,11.37
2019-02-09T10:36:26.782Z,11.50
2019-02-09T10:38:56.380Z,12.47
2019-02-09T10:41:27.241Z,12.03
2019-02-09T10:43:56.869Z,12.50
2019-02-09T10:46:26.493Z,12.23
2019-02-09T10:48:56.130Z,12.20
2019-02-09T10:51:25.765Z,12.43
2019-02-09T10:53:55.389Z,12.17
2019-02-09T10:56:25.018Z,10.93
2019-02-09T10:58:56.271Z,11.33
2019-02-09T11:01:25.937Z,11.13
2019-02-09T11:03:55.555Z,11.03
2019-02-09T11:06:25.292Z,11.40
2019-02-09T11:08:55.233Z,11.10
2019-02-09T11:11:26.253Z,10.80
2019-02-09T11:13:55.882Z,10.50
2019-02-09T11:16:25.565Z,10.17
2019-02-09T11:18:55.274Z,10.27
2019-02-09T11:21:24.894Z,10.50
2019-02-09T11:23:55.693Z,10.73
2019-02-09T11:26:25.309Z,10.10
2019-02-09T11:28:56.363Z,10.57
2019-02-09T11:31:25.985Z,10.77
2019-02-09T11:33:55.608Z,10.30
2019-02-09T11:36:25.307Z,11.10
2019-02-09T11:38:55.050Z,10.03
2019-02-09T11:41:24.706Z,10.37
2019-02-09T11:43:54.358Z,10.77
2019-02-09T11:46:25.603Z,10.70
2019-02-09T11:48:53.630Z,10.73
2019-02-09T11:51:23.290Z,10.13
2019-02-09T11:53:53.287Z,11.23
2019-02-09T11:56:24.977Z,10.37
2019-02-09T11:58:54.580Z,10.50
2019-02-09T12:01:26.694Z,9.93
2019-02-09T12:03:56.325Z,10.23
2019-02-09T12:06:25.958Z,10.50
2019-02-09T12:08:56.821Z,10.20
2019-02-09T12:11:28.006Z,11.03
2019-02-09T12:13:57.639Z,10.83
2019-02-09T12:16:27.277Z,9.60
2019-02-09T12:18:56.915Z,9.10
2019-02-09T12:21:26.578Z,10.80
2019-02-09T12:23:56.319Z,10.20
2019-02-09T12:26:28.363Z,10.27
2019-02-09T12:28:58.008Z,10.10
2019-02-09T12:31:28.985Z,9.63
2019-02-09T12:33:58.594Z,10.23
2019-02-09T12:36:29.497Z,9.60
2019-02-09T12:39:00.462Z,9.50
2019-02-09T12:41:30.110Z,10.63
2019-02-09T12:44:00.982Z,9.97
2019-02-09T12:46:30.587Z,9.73
2019-02-09T12:49:00.237Z,9.47
2019-02-09T12:51:29.861Z,9.93
2019-02-09T12:53:59.476Z,10.60
2019-02-09T12:56:29.126Z,9.50
2019-02-09T12:59:01.173Z,10.40
2019-02-09T13:01:32.109Z,9.87
2019-02-09T13:04:01.802Z,10.13
2019-02-09T13:06:31.525Z,10.17
2019-02-09T13:09:02.529Z,8.87
2019-02-09T13:11:32.298Z,8.80
2019-02-09T13:14:02.494Z,10.13
2019-02-09T13:16:32.177Z,9.60
2019-02-09T13:19:04.346Z,10.23
2019-02-09T13:21:36.044Z,10.30
2019-02-09T13:24:06.613Z,21.50
2019-02-09T13:26:37.409Z,13.00
2019-02-09T13:29:07.761Z,9.70
2019-02-09T13:31:40.097Z,8.70
2019-02-09T13:34:11.016Z,9.23
2019-02-09T13:36:41.462Z,10.50
2019-02-09T13:39:11.968Z,9.03
2019-02-09T13:41:43.881Z,8.73
2019-02-09T13:44:14.421Z,9.50
2019-02-09T13:46:44.043Z,9.93
2019-02-09T13:49:17.481Z,7.67
2019-02-09T13:51:47.117Z,9.43
2019-02-09T13:54:16.730Z,7.90
2019-02-09T13:56:46.356Z,9.30
2019-02-09T13:59:17.271Z,8.33
2019-02-09T14:01:46.878Z,8.00
2019-02-09T14:04:17.733Z,7.67
2019-02-09T14:06:47.357Z,8.23
2019-02-09T14:09:20.481Z,7.10
2019-02-09T14:11:50.158Z,7.60
2019-02-09T14:14:21.016Z,7.07
2019-02-09T14:16:50.671Z,7.00
2019-02-09T14:19:22.398Z,7.77
2019-02-09T14:21:52.037Z,6.23
2019-02-09T14:24:23.681Z,6.00
2019-02-09T14:26:53.304Z,5.60
2019-02-09T14:29:22.941Z,6.60
2019-02-09T14:31:52.621Z,7.17
2019-02-09T14:34:22.284Z,5.80
2019-02-09T14:36:51.998Z,5.67
2019-02-09T14:39:21.671Z,5.20
2019-02-09T14:41:51.306Z,5.70
2019-02-09T14:44:22.173Z,6.60
2019-02-09T14:46:55.716Z,4.97
2019-02-09T14:49:25.330Z,5.67
2019-02-09T14:51:57.409Z,5.13
2019-02-09T14:54:27.011Z,4.90
2019-02-09T14:56:56.729Z,5.17
2019-02-09T14:59:26.365Z,6.17
2019-02-09T15:01:58.471Z,5.70
2019-02-09T15:04:28.077Z,5.53
2019-02-09T15:07:04.477Z,4.93
2019-02-09T15:09:34.182Z,5.53
2019-02-09T15:12:03.806Z,5.77
2019-02-09T15:14:35.225Z,5.37
2019-02-09T15:17:06.169Z,5.50
2019-02-09T15:19:40.447Z,5.77
2019-02-09T15:22:10.091Z,5.23
2019-02-09T15:24:39.753Z,5.63
2019-02-09T15:27:09.362Z,5.53
2019-02-09T15:29:39.222Z,4.73
2019-02-09T15:32:09.473Z,4.73
2019-02-09T15:34:39.101Z,4.87
2019-02-09T15:37:09.146Z,5.23
2019-02-09T15:39:39.006Z,5.70
2019-02-09T15:42:08.633Z,5.17
2019-02-09T15:44:39.522Z,5.27
2019-02-09T15:47:09.169Z,6.33
2019-02-09T15:49:38.765Z,5.03
2019-02-09T15:52:09.692Z,5.97
2019-02-09T15:54:39.388Z,6.07
2019-02-09T15:57:09.058Z,5.47
2019-02-09T15:59:38.699Z,6.20
2019-02-09T16:02:08.309Z,5.63
2019-02-09T16:04:39.167Z,5.63
2019-02-09T16:07:08.771Z,5.47
2019-02-09T16:09:38.422Z,5.53
2019-02-09T16:12:08.033Z,5.20
2019-02-09T16:14:37.779Z,5.77
2019-02-09T16:17:07.695Z,5.60
2019-02-09T16:19:37.510Z,5.67
2019-02-09T16:22:07.149Z,5.83
2019-02-09T16:24:38.173Z,5.10
2019-02-09T16:27:09.413Z,6.33
2019-02-09T16:29:39.111Z,5.53
2019-02-09T16:32:09.373Z,5.80
2019-02-09T16:34:39.743Z,5.67
2019-02-09T16:37:09.414Z,5.87
2019-02-09T16:39:40.290Z,5.63
2019-02-09T16:42:10.514Z,5.77
2019-02-09T16:44:40.585Z,5.10
2019-02-09T16:47:10.368Z,5.63
2019-02-09T16:49:40.649Z,5.53
2019-02-09T16:52:11.622Z,5.20
2019-02-09T16:54:41.313Z,4.67
2019-02-09T16:57:10.949Z,4.97
2019-02-09T16:59:42.792Z,5.10
2019-02-09T17:02:12.437Z,4.70
2019-02-09T17:04:42.421Z,4.80
2019-02-09T17:07:12.115Z,5.17
2019-02-09T17:09:41.721Z,5.23
2019-02-09T17:12:13.897Z,5.33
2019-02-09T17:14:43.511Z,5.23
2019-02-09T17:17:17.675Z,6.03
2019-02-09T17:19:48.453Z,6.40
2019-02-09T17:22:18.158Z,5.20
2019-02-09T17:24:49.032Z,6.40
2019-02-09T17:27:20.880Z,6.40
2019-02-09T17:29:51.652Z,6.10
2019-02-09T17:32:21.253Z,6.60
2019-02-09T17:34:50.908Z,5.23
2019-02-09T17:37:21.739Z,5.53
2019-02-09T17:39:54.647Z,5.47
2019-02-09T17:42:24.273Z,5.10
2019-02-09T17:44:55.293Z,5.30
2019-02-09T17:47:24.897Z,5.10
2019-02-09T17:49:58.298Z,5.17
2019-02-09T17:52:27.914Z,5.37
2019-02-09T17:54:57.545Z,5.30
2019-02-09T17:57:27.161Z,4.70
2019-02-09T17:59:56.810Z,5.13
2019-02-09T18:02:26.498Z,5.47
2019-02-09T18:04:56.150Z,5.43
2019-02-09T18:07:25.773Z,4.30
2019-02-09T18:09:56.696Z,5.13
2019-02-09T18:12:28.641Z,5.00
2019-02-09T18:14:59.462Z,4.80
2019-02-09T18:17:29.104Z,4.47
2019-02-09T18:20:00.201Z,4.50
2019-02-09T18:22:29.845Z,4.63
2019-02-09T18:24:59.505Z,4.33
2019-02-09T18:27:29.144Z,4.07
2019-02-09T18:29:58.817Z,4.50
2019-02-09T18:32:31.679Z,3.83
2019-02-09T18:35:01.318Z,4.73
2019-02-09T18:37:32.214Z,4.93
2019-02-09T18:40:02.674Z,5.93
2019-02-09T18:42:33.671Z,7.10
2019-02-09T18:45:03.428Z,8.67
2019-02-09T18:47:34.309Z,5.93
2019-02-09T18:50:05.789Z,7.50
2019-02-09T18:52:35.410Z,5.83
2019-02-09T18:55:05.311Z,5.83
2019-02-09T18:57:35.662Z,5.10
2019-02-09T19:00:08.097Z,4.97
2019-02-09T19:02:38.995Z,4.97
2019-02-09T19:05:11.057Z,4.73
2019-02-09T19:07:41.974Z,5.03
2019-02-09T19:10:15.409Z,4.80
2019-02-09T19:12:45.094Z,4.50
2019-02-09T19:15:15.462Z,4.07
2019-02-09T19:17:45.081Z,3.37
2019-02-09T19:20:18.441Z,3.70
2019-02-09T19:22:48.495Z,4.03
2019-02-09T19:25:18.785Z,3.80
2019-02-09T19:27:49.537Z,3.57
2019-02-09T19:30:20.366Z,3.50
2019-02-09T19:32:52.494Z,3.10
2019-02-09T19:35:22.227Z,3.63
2019-02-09T19:37:51.881Z,2.70
2019-02-09T19:40:22.790Z,4.37
2019-02-09T19:42:52.405Z,3.23
2019-02-09T19:45:26.485Z,3.00
2019-02-09T19:47:56.713Z,3.60
2019-02-09T19:50:26.380Z,3.20
2019-02-09T19:52:57.229Z,3.10
2019-02-09T19:55:28.149Z,3.50
2019-02-09T19:57:57.845Z,3.30
2019-02-09T20:00:29.698Z,3.13
2019-02-09T20:02:59.346Z,3.50
2019-02-09T20:05:30.285Z,2.87
2019-02-09T20:07:59.986Z,2.90
2019-02-09T20:10:33.090Z,3.30
2019-02-09T20:13:02.842Z,3.17
2019-02-09T20:15:32.461Z,2.93
2019-02-09T20:18:02.239Z,2.47
2019-02-09T20:20:31.878Z,2.67
2019-02-09T20:23:01.551Z,2.63
2019-02-09T20:25:31.179Z,2.70
2019-02-09T20:28:00.856Z,2.80
2019-02-09T20:30:32.294Z,2.47
2019-02-09T20:33:03.387Z,2.57
2019-02-09T20:35:34.274Z,2.20
2019-02-09T20:38:04.041Z,2.50
2019-02-09T20:40:36.921Z,2.33
2019-02-09T20:43:07.863Z,2.30
2019-02-09T20:45:37.511Z,2.33
2019-02-09T20:48:07.239Z,2.50
2019-02-09T20:50:36.882Z,2.30
2019-02-09T20:53:07.434Z,2.67
2019-02-09T20:55:38.857Z,2.77
2019-02-09T20:58:09.961Z,2.50
2019-02-09T21:00:41.107Z,2.30
2019-02-09T21:03:15.460Z,2.77
2019-02-09T21:05:46.403Z,1.93
2019-02-09T21:08:16.030Z,2.30
2019-02-09T21:10:46.598Z,2.73
2019-02-09T21:13:16.226Z,3.63
2019-02-09T21:15:45.895Z,2.93
2019-02-09T21:18:15.581Z,3.07
2019-02-09T21:20:46.501Z,2.77
2019-02-09T21:23:17.077Z,2.10
2019-02-09T21:25:47.206Z,3.03
2019-02-09T21:28:17.398Z,2.70
2019-02-09T21:30:47.741Z,3.30
2019-02-09T21:33:17.509Z,2.73
2019-02-09T21:35:49.244Z,3.00
2019-02-09T21:38:19.779Z,2.40
2019-02-09T21:40:51.845Z,2.70
2019-02-09T21:43:21.469Z,2.60
2019-02-09T21:45:51.093Z,3.13
2019-02-09T21:48:22.612Z,2.80
2019-02-09T21:50:52.277Z,3.20
2019-02-09T21:53:21.964Z,2.40
2019-02-09T21:55:51.629Z,2.80
2019-02-09T21:58:21.338Z,2.90
2019-02-09T22:00:51.036Z,2.50
2019-02-09T22:03:21.097Z,3.03
2019-02-09T22:05:52.126Z,3.30
2019-02-09T22:08:20.453Z,2.87
2019-02-09T22:10:50.663Z,3.00
2019-02-09T22:13:20.337Z,2.80
2019-02-09T22:15:50.265Z,2.43
2019-02-09T22:18:19.911Z,2.73
2019-02-09T22:20:52.802Z,2.30
2019-02-09T22:23:20.581Z,2.70
2019-02-09T22:25:50.217Z,3.03
2019-02-09T22:28:19.953Z,2.50
2019-02-09T22:30:49.679Z,2.13
2019-02-09T22:33:24.730Z,3.73
2019-02-09T22:35:49.226Z,2.10
2019-02-09T22:38:18.869Z,2.00
2019-02-09T22:40:49.594Z,2.03
2019-02-09T22:43:19.245Z,2.30
2019-02-09T22:45:48.886Z,2.77
2019-02-09T22:48:19.741Z,2.30
2019-02-09T22:50:49.456Z,2.63
2019-02-09T22:53:19.051Z,2.10
2019-02-09T22:55:48.657Z,2.27
2019-02-09T22:58:18.279Z,2.30
2019-02-09T23:00:53.904Z,2.33
2019-02-09T23:03:33.053Z,2.50
2019-02-09T23:06:13.746Z,2.40
2019-02-09T23:08:43.514Z,2.40
2019-02-09T23:11:13.532Z,2.43
2019-02-09T23:13:43.158Z,2.03
2019-02-09T23:16:12.781Z,1.80
2019-02-09T23:18:42.393Z,2.17
2019-02-09T23:21:12.198Z,3.10
2019-02-09T23:23:43.171Z,2.60
2019-02-09T23:26:12.758Z,1.87
2019-02-09T23:28:42.427Z,3.10
2019-02-09T23:31:12.029Z,1.90
2019-02-09T23:33:41.658Z,2.03
2019-02-09T23:36:16.153Z,2.20
2019-02-09T23:38:40.913Z,2.20
2019-02-09T23:41:10.734Z,2.17
2019-02-09T23:43:40.411Z,2.10
2019-02-09T23:46:10.757Z,2.30
2019-02-09T23:48:40.365Z,2.23
2019-02-09T23:51:10.136Z,1.60
2019-02-09T23:53:39.824Z,2.10
2019-02-09T23:56:10.785Z,2.27
2019-02-09T23:58:40.421Z,1.83
